Terminal Aerodrome Forecast
Issued by NWS

Home | Current Version | Previous Version | Graphics & Text | Print | Product List | Glossary On
Versions: 1 2 3 4 5 6 7 8 9 10 11 12 13 14 15 16 17 18 19 20 21 22 23 24
000
FTUS43 KBIS 221724
TAFDIK
TAF
KDIK 221724Z 2218/2318 11013KT P6SM SCT100
     FM222000 12014G20KT P6SM VCTS SCT080CB BKN120
     FM230000 11016G22KT P6SM -TSRA BKN090CB
      TEMPO 2300/2303 4SM TSGR OVC040CB
     FM230300 12018G25KT P6SM -SHRA VCTS BKN090CB
     FM230600 13017G24KT P6SM BKN120
     FM231100 18012KT P6SM BKN130
     FM231300 22012KT P6SM BKN150
     FM231500 29017G24KT P6SM SCT200=

USA.gov is the U.S. government's official web portal to all federal, state and local government web resources and services.